Time,TemperatureF,DewpointF,PressureIn,WindDirection,WindDirectionDegrees,WindSpeedMPH,WindSpeedGustMPH,Humidity,HourlyPrecipIn,Conditions,Clouds,dailyrainin,SoftwareType,DateUTC
2013-01-27 00:01:00,41.0,41.0,30.16,NE,51,5.0,9.0,100,0.01,,,0.37,,2013-01-27 08:01:00,
2013-01-27 00:11:00,41.0,41.0,30.16,NE,51,5.0,9.0,100,0.01,,,0.37,,2013-01-27 08:11:00,
2013-01-27 00:21:00,41.0,41.0,30.17,North,11,6.0,11.0,100,0.04,,,0.40,,2013-01-27 08:21:00,
2013-01-27 00:31:00,41.0,41.0,30.17,ENE,65,3.0,5.0,100,0.05,,,0.40,,2013-01-27 08:31:00,
2013-01-27 00:41:00,41.0,41.0,30.17,ENE,65,3.0,5.0,100,0.05,,,0.40,,2013-01-27 08:41:00,
2013-01-27 00:52:00,41.0,41.0,30.16,East,101,2.0,3.0,100,0.05,,,0.40,,2013-01-27 08:52:00,
2013-01-27 01:02:00,41.0,41.0,30.16,ESE,120,2.0,3.0,100,0.04,,,0.40,,2013-01-27 09:02:00,
2013-01-27 01:11:00,41.0,41.0,30.16,ESE,120,2.0,3.0,100,0.04,,,0.40,,2013-01-27 09:11:00,
2013-01-27 01:21:00,41.0,41.0,30.17,ESE,121,1.0,3.0,100,0.01,,,0.40,,2013-01-27 09:21:00,
2013-01-27 01:31:00,41.0,41.0,30.17,SE,130,4.0,6.0,100,0.00,,,0.32,,2013-01-27 09:31:00,
2013-01-27 01:41:00,41.0,41.0,30.17,SE,130,4.0,6.0,100,0.00,,,0.32,,2013-01-27 09:41:00,
2013-01-27 01:52:00,41.0,41.0,30.17,ESE,111,5.0,7.0,100,0.00,,,0.32,,2013-01-27 09:52:00,
2013-01-27 02:01:00,40.0,40.0,30.16,SE,126,4.0,7.0,100,0.00,,,0.32,,2013-01-27 10:01:00,
2013-01-27 02:11:00,40.0,40.0,30.17,ESE,105,5.0,7.0,100,0.00,,,0.32,,2013-01-27 10:11:00,
2013-01-27 02:21:00,40.0,40.0,30.17,ESE,105,5.0,7.0,100,0.00,,,0.32,,2013-01-27 10:21:00,
2013-01-27 02:31:00,40.0,40.0,30.18,NNE,17,1.0,4.0,100,0.00,,,0.32,,2013-01-27 10:31:00,
2013-01-27 02:41:00,40.0,40.0,30.18,NNE,17,1.0,4.0,100,0.00,,,0.32,,2013-01-27 10:41:00,
2013-01-27 02:52:00,40.0,40.0,30.18,ESE,109,2.0,3.0,100,0.00,,,0.32,,2013-01-27 10:52:00,
2013-01-27 03:01:00,40.0,40.0,30.18,SE,138,2.0,6.0,100,0.01,,,0.33,,2013-01-27 11:01:00,
2013-01-27 03:11:00,40.0,40.0,30.18,SE,138,2.0,6.0,100,0.01,,,0.33,,2013-01-27 11:11:00,
2013-01-27 03:21:00,41.0,41.0,30.18,East,94,3.0,5.0,100,0.02,,,0.34,,2013-01-27 11:21:00,
2013-01-27 03:31:00,41.0,41.0,30.17,ESE,112,1.0,3.0,100,0.03,,,0.31,,2013-01-27 11:31:00,
2013-01-27 03:42:00,41.0,41.0,30.17,ESE,112,1.0,3.0,100,0.03,,,0.31,,2013-01-27 11:42:00,
2013-01-27 03:52:00,41.0,41.0,30.18,SE,128,5.0,7.0,100,0.03,,,0.31,,2013-01-27 11:52:00,
2013-01-27 04:02:00,41.0,41.0,30.18,ESE,117,3.0,6.0,100,0.02,,,0.31,,2013-01-27 12:02:00,
2013-01-27 04:11:00,41.0,41.0,30.18,ESE,117,3.0,6.0,100,0.02,,,0.31,,2013-01-27 12:11:00,
2013-01-27 04:21:00,41.0,41.0,30.18,ESE,115,0.0,3.0,100,0.01,,,0.31,,2013-01-27 12:21:00,
2013-01-27 04:32:00,41.0,41.0,30.18,ENE,65,2.0,4.0,100,0.00,,,0.31,,2013-01-27 12:32:00,
2013-01-27 04:41:00,41.0,41.0,30.18,ENE,65,2.0,4.0,100,0.00,,,0.31,,2013-01-27 12:41:00,
2013-01-27 04:52:00,40.0,40.0,30.18,ENE,76,2.0,3.0,100,0.00,,,0.31,,2013-01-27 12:52:00,
2013-01-27 05:01:00,40.0,40.0,30.18,SE,128,2.0,4.0,100,0.00,,,0.31,,2013-01-27 13:01:00,
2013-01-27 05:11:00,40.0,40.0,30.18,SE,128,2.0,4.0,100,0.00,,,0.31,,2013-01-27 13:11:00,
2013-01-27 05:22:00,40.0,40.0,30.18,SE,124,5.0,6.0,100,0.00,,,0.31,,2013-01-27 13:22:00,
2013-01-27 05:31:00,40.0,40.0,30.18,ESE,123,3.0,5.0,100,0.00,,,0.31,,2013-01-27 13:31:00,
2013-01-27 05:41:00,40.0,40.0,30.18,ESE,123,3.0,5.0,100,0.00,,,0.31,,2013-01-27 13:41:00,
2013-01-27 05:52:00,40.0,40.0,30.18,ESE,111,5.0,7.0,100,0.00,,,0.31,,2013-01-27 13:52:00,
2013-01-27 06:01:00,40.0,40.0,30.18,SE,127,5.0,9.0,100,0.00,,,0.31,,2013-01-27 14:01:00,
2013-01-27 06:11:00,40.0,40.0,30.18,SE,127,5.0,9.0,100,0.00,,,0.31,,2013-01-27 14:11:00,
2013-01-27 06:21:00,40.0,40.0,30.18,ENE,69,2.0,3.0,100,0.01,,,0.32,,2013-01-27 14:21:00,
2013-01-27 06:31:00,40.0,40.0,30.18,SE,132,2.0,3.0,100,0.01,,,0.32,,2013-01-27 14:31:00,
2013-01-27 06:42:00,40.0,40.0,30.18,SE,132,2.0,3.0,100,0.01,,,0.32,,2013-01-27 14:42:00,
2013-01-27 06:52:00,40.0,40.0,30.18,SE,127,2.0,4.0,100,0.01,,,0.32,,2013-01-27 14:52:00,
2013-01-27 07:01:00,39.0,39.0,30.18,SE,138,2.0,4.0,100,0.01,,,0.32,,2013-01-27 15:01:00,
2013-01-27 07:11:00,39.0,39.0,30.18,SE,138,2.0,4.0,100,0.01,,,0.32,,2013-01-27 15:11:00,
2013-01-27 07:21:00,39.0,39.0,30.19,SE,138,0.0,2.0,100,0.00,,,0.32,,2013-01-27 15:21:00,
2013-01-27 07:31:00,39.0,39.0,30.19,SE,136,1.0,3.0,100,0.00,,,0.29,,2013-01-27 15:31:00,
2013-01-27 07:42:00,39.0,39.0,30.19,SE,136,1.0,3.0,100,0.00,,,0.29,,2013-01-27 15:42:00,
2013-01-27 07:52:00,39.0,39.0,30.19,SE,142,2.0,4.0,100,0.00,,,0.29,,2013-01-27 15:52:00,
2013-01-27 08:01:00,39.0,39.0,30.19,ESE,120,4.0,6.0,100,0.00,,,0.29,,2013-01-27 16:01:00,
2013-01-27 08:11:00,39.0,39.0,30.19,ESE,120,4.0,6.0,100,0.00,,,0.29,,2013-01-27 16:11:00,
2013-01-27 08:21:00,39.0,39.0,30.19,SE,142,4.0,6.0,100,0.00,,,0.29,,2013-01-27 16:21:00,
2013-01-27 08:31:00,39.0,39.0,30.19,ESE,111,3.0,6.0,100,0.00,,,0.28,,2013-01-27 16:31:00,
2013-01-27 08:41:00,39.0,39.0,30.19,ESE,111,3.0,6.0,100,0.00,,,0.28,,2013-01-27 16:41:00,
2013-01-27 08:52:00,40.0,40.0,30.20,ENE,74,2.0,4.0,100,0.00,,,0.28,,2013-01-27 16:52:00,
2013-01-27 09:01:00,40.0,40.0,30.20,ESE,109,1.0,3.0,100,0.00,,,0.28,,2013-01-27 17:01:00,
2013-01-27 09:11:00,40.0,40.0,30.20,ESE,109,1.0,3.0,100,0.00,,,0.28,,2013-01-27 17:11:00,
2013-01-27 09:21:00,41.0,41.0,30.20,ESE,114,3.0,4.0,100,0.00,,,0.28,,2013-01-27 17:21:00,
2013-01-27 09:31:00,41.0,41.0,30.21,ESE,114,2.0,4.0,100,0.00,,,0.26,,2013-01-27 17:31:00,
2013-01-27 09:41:00,41.0,41.0,30.21,ESE,114,2.0,4.0,100,0.00,,,0.26,,2013-01-27 17:41:00,
2013-01-27 09:52:00,41.0,41.0,30.21,East,90,1.0,4.0,100,0.01,,,0.27,,2013-01-27 17:52:00,
2013-01-27 10:01:00,41.0,41.0,30.21,ESE,122,6.0,7.0,100,0.03,,,0.29,,2013-01-27 18:01:00,
2013-01-27 10:11:00,41.0,41.0,30.21,ESE,122,6.0,7.0,100,0.03,,,0.29,,2013-01-27 18:11:00,
2013-01-27 10:22:00,42.0,42.0,30.21,SSE,160,5.0,7.0,100,0.03,,,0.29,,2013-01-27 18:22:00,
2013-01-27 10:31:00,42.0,42.0,30.22,SE,130,4.0,7.0,100,0.03,,,0.29,,2013-01-27 18:31:00,
2013-01-27 10:41:00,42.0,42.0,30.22,SE,130,4.0,7.0,100,0.03,,,0.29,,2013-01-27 18:41:00,
2013-01-27 10:52:00,42.0,42.0,30.22,SE,146,5.0,6.0,100,0.03,,,0.30,,2013-01-27 18:52:00,
2013-01-27 11:01:00,42.0,42.0,30.22,ESE,107,4.0,6.0,100,0.04,,,0.33,,2013-01-27 19:01:00,
2013-01-27 11:11:00,42.0,42.0,30.22,ESE,107,4.0,6.0,100,0.04,,,0.33,,2013-01-27 19:11:00,
2013-01-27 11:21:00,43.0,43.0,30.22,ESE,112,4.0,7.0,100,0.04,,,0.33,,2013-01-27 19:21:00,
2013-01-27 11:31:00,43.0,43.0,30.22,ENE,76,3.0,6.0,100,0.04,,,0.33,,2013-01-27 19:31:00,
2013-01-27 11:41:00,43.0,43.0,30.22,ENE,76,3.0,6.0,100,0.04,,,0.33,,2013-01-27 19:41:00,
2013-01-27 11:52:00,43.0,43.0,30.22,SSW,210,6.0,12.0,100,0.03,,,0.33,,2013-01-27 19:52:00,
2013-01-27 12:02:00,44.0,44.0,30.21,SSW,211,11.0,17.0,100,0.01,,,0.34,,2013-01-27 20:02:00,
2013-01-27 12:11:00,44.0,44.0,30.21,SSW,211,11.0,17.0,100,0.01,,,0.34,,2013-01-27 20:11:00,
2013-01-27 12:21:00,44.0,44.0,30.21,SW,223,6.0,15.0,100,0.01,,,0.34,,2013-01-27 20:21:00,
2013-01-27 12:33:00,44.0,-99.9,30.20,SSW,203,8.0,13.0,-999,0.01,,,0.28,,2013-01-27 20:33:00,
2013-01-27 12:42:00,44.0,-99.9,30.20,SSW,203,8.0,13.0,-999,0.01,,,0.28,,2013-01-27 20:42:00,
2013-01-27 12:52:00,45.0,45.0,30.20,South,186,8.0,14.0,100,0.01,,,0.28,,2013-01-27 20:52:00,
2013-01-27 13:01:00,44.0,44.0,30.19,SSW,194,8.0,15.0,100,0.00,,,0.28,,2013-01-27 21:01:00,
2013-01-27 13:11:00,44.0,44.0,30.19,SSW,194,8.0,15.0,100,0.00,,,0.28,,2013-01-27 21:11:00,
2013-01-27 13:21:00,45.0,45.0,30.18,SSW,203,8.0,15.0,100,0.00,,,0.28,,2013-01-27 21:21:00,
2013-01-27 13:32:00,44.0,-32.0,30.17,SW,215,7.0,14.0,3,0.00,,,0.28,,2013-01-27 21:32:00,
2013-01-27 14:31:00,43.0,43.0,30.16,WSW,242,3.0,11.0,100,0.05,,,0.31,,2013-01-27 22:31:00,
2013-01-27 14:42:00,43.0,43.0,30.16,WSW,242,3.0,11.0,100,0.05,,,0.31,,2013-01-27 22:42:00,
2013-01-27 14:52:00,43.0,43.0,30.16,WSW,244,8.0,12.0,100,0.06,,,0.32,,2013-01-27 22:52:00,
2013-01-27 15:01:00,43.0,43.0,30.16,WSW,243,4.0,9.0,100,0.09,,,0.35,,2013-01-27 23:01:00,
2013-01-27 15:11:00,43.0,43.0,30.16,WSW,243,4.0,9.0,100,0.09,,,0.35,,2013-01-27 23:11:00,
2013-01-27 15:21:00,43.0,43.0,30.16,SSW,207,4.0,7.0,100,0.08,,,0.35,,2013-01-27 23:21:00,
2013-01-27 15:31:00,44.0,44.0,30.16,West,272,4.0,17.0,100,0.06,,,0.35,,2013-01-27 23:31:00,
2013-01-27 15:41:00,44.0,44.0,30.16,West,272,4.0,17.0,100,0.06,,,0.35,,2013-01-27 23:41:00,
2013-01-27 15:53:00,44.0,44.0,30.16,West,263,9.0,15.0,100,0.06,,,0.36,,2013-01-27 23:53:00,
2013-01-27 16:02:00,44.0,-99.9,30.16,WSW,245,4.0,7.0,-999,0.03,,,0.36,,2013-01-28 00:02:00,
2013-01-27 16:12:00,44.0,-99.9,30.16,WSW,245,4.0,7.0,-999,0.03,,,0.36,,2013-01-28 00:12:00,
2013-01-27 16:22:00,44.0,-99.9,30.16,SW,227,5.0,7.0,-999,0.05,,,0.38,,2013-01-28 00:22:00,
2013-01-27 16:33:00,44.0,-99.9,30.15,SW,232,4.0,9.0,-999,0.06,,,0.39,,2013-01-28 00:33:00,
2013-01-27 16:42:00,44.0,-99.9,30.15,SW,232,4.0,9.0,-999,0.06,,,0.39,,2013-01-28 00:42:00,
2013-01-27 16:52:00,44.0,-99.9,30.15,West,261,6.0,11.0,-999,0.06,,,0.40,,2013-01-28 00:52:00,
2013-01-27 17:02:00,44.0,-99.9,30.15,SW,220,4.0,16.0,-999,0.08,,,0.42,,2013-01-28 01:02:00,
2013-01-27 17:12:00,44.0,-99.9,30.15,SW,220,4.0,16.0,-999,0.08,,,0.42,,2013-01-28 01:12:00,
2013-01-27 17:21:00,44.0,44.0,30.14,WSW,239,8.0,14.0,100,0.06,,,0.42,,2013-01-28 01:21:00,
2013-01-27 17:32:00,44.0,44.0,30.14,SW,223,11.0,16.0,100,0.05,,,0.43,,2013-01-28 01:32:00,
2013-01-27 17:42:00,44.0,44.0,30.14,SW,223,11.0,16.0,100,0.05,,,0.43,,2013-01-28 01:42:00,
2013-01-27 17:52:00,44.0,44.0,30.14,SW,228,11.0,15.0,100,0.04,,,0.43,,2013-01-28 01:52:00,
2013-01-27 18:02:00,44.0,-99.9,30.14,SW,229,7.0,13.0,-999,0.03,,,0.44,,2013-01-28 02:02:00,
2013-01-27 18:12:00,44.0,-99.9,30.14,SW,229,7.0,13.0,-999,0.03,,,0.44,,2013-01-28 02:12:00,
2013-01-27 18:22:00,44.0,-99.9,30.14,SW,229,6.0,10.0,-999,0.04,,,0.45,,2013-01-28 02:22:00,
2013-01-27 18:32:00,44.0,44.0,30.13,SSW,202,7.0,11.0,100,0.03,,,0.45,,2013-01-28 02:32:00,
2013-01-27 18:41:00,44.0,44.0,30.13,SSW,202,7.0,11.0,100,0.03,,,0.45,,2013-01-28 02:41:00,
2013-01-27 18:52:00,44.0,44.0,30.13,SW,233,4.0,7.0,100,0.04,,,0.46,,2013-01-28 02:52:00,
2013-01-27 19:01:00,45.0,45.0,30.12,South,190,5.0,10.0,100,0.04,,,0.47,,2013-01-28 03:01:00,
2013-01-27 19:11:00,45.0,45.0,30.12,South,190,5.0,10.0,100,0.04,,,0.47,,2013-01-28 03:11:00,
2013-01-27 19:21:00,45.0,-38.0,30.12,SW,231,6.0,13.0,2,0.03,,,0.47,,2013-01-28 03:21:00,
2013-01-27 20:21:00,45.0,-38.0,30.12,NW,308,3.0,8.0,2,0.02,,,0.48,,2013-01-28 04:21:00,
2013-01-27 20:31:00,45.0,-31.0,30.13,NW,306,4.0,10.0,3,0.02,,,0.47,,2013-01-28 04:31:00,
2013-01-27 20:52:00,45.0,-38.0,30.14,WNW,300,6.0,12.0,2,0.01,,,0.47,,2013-01-28 04:52:00,
2013-01-27 21:03:00,46.0,-31.0,30.14,West,270,13.0,19.0,3,0.01,,,0.48,,2013-01-28 05:03:00,
2013-01-27 21:21:00,45.0,-31.0,30.14,WNW,288,13.0,21.0,3,0.01,,,0.48,,2013-01-28 05:21:00,
2013-01-27 21:31:00,46.0,-15.0,30.14,NW,309,11.0,20.0,7,0.01,,,0.48,,2013-01-28 05:31:00,
2013-01-27 21:52:00,47.0,3.0,30.15,NNW,346,13.0,23.0,16,0.01,,,0.48,,2013-01-28 05:52:00,
2013-01-27 22:01:00,46.0,-7.0,30.15,NW,304,13.0,22.0,10,0.00,,,0.48,,2013-01-28 06:01:00,
2013-01-27 22:21:00,46.0,2.0,30.16,WNW,298,14.0,24.0,16,0.00,,,0.48,,2013-01-28 06:21:00,
2013-01-27 22:31:00,46.0,2.0,30.15,WNW,299,10.0,19.0,16,0.00,,,0.48,,2013-01-28 06:31:00,
2013-01-27 22:52:00,47.0,11.0,30.16,WNW,295,12.0,24.0,23,0.00,,,0.48,,2013-01-28 06:52:00,
2013-01-27 23:02:00,47.0,15.0,30.16,WNW,288,12.0,21.0,27,0.00,,,0.48,,2013-01-28 07:02:00,
2013-01-27 23:21:00,46.0,4.0,30.16,WNW,298,10.0,20.0,17,0.00,,,0.48,,2013-01-28 07:21:00,
2013-01-27 23:31:00,46.0,7.0,30.17,WNW,298,9.0,23.0,20,0.00,,,0.47,,2013-01-28 07:31:00,